createdAt,value
2023-03-29T00:00:39.159Z,4.52
2023-03-29T00:03:45.697Z,4.51
2023-03-29T00:06:50.594Z,4.52
2023-03-29T00:09:54.726Z,4.53
2023-03-29T00:12:59.856Z,4.52
2023-03-29T00:16:04.703Z,4.51
2023-03-29T00:19:09.654Z,4.48
2023-03-29T00:22:14.926Z,4.49
2023-03-29T00:25:19.382Z,4.54
2023-03-29T00:28:24.452Z,4.53
2023-03-29T00:31:28.908Z,4.55
2023-03-29T00:34:36.083Z,4.56
2023-03-29T00:37:41.334Z,4.56
2023-03-29T00:40:47.320Z,4.59
2023-03-29T00:44:02.093Z,4.61
2023-03-29T00:47:06.632Z,4.59
2023-03-29T00:50:30.868Z,4.59
2023-03-29T00:53:46.824Z,4.57
2023-03-29T00:56:51.681Z,4.55
2023-03-29T00:59:57.764Z,4.54
2023-03-29T01:03:13.689Z,4.50
2023-03-29T01:06:22.771Z,4.54
2023-03-29T01:09:30.362Z,4.50
2023-03-29T01:12:46.626Z,4.52
2023-03-29T01:15:51.279Z,4.49
2023-03-29T01:19:02.275Z,4.47
2023-03-29T01:22:18.421Z,4.45
2023-03-29T01:25:55.643Z,4.39
2023-03-29T01:29:09.917Z,4.40
2023-03-29T01:32:26.040Z,4.42
2023-03-29T01:36:13.911Z,4.38
2023-03-29T01:39:19.003Z,4.35
2023-03-29T01:42:33.420Z,4.38
2023-03-29T01:46:16.629Z,4.29
2023-03-29T01:49:43.932Z,4.24
2023-03-29T01:53:13.201Z,4.17
2023-03-29T01:56:22.976Z,4.12
2023-03-29T01:59:32.242Z,4.01
2023-03-29T02:02:41.699Z,4.02
2023-03-29T02:05:46.696Z,4.03
2023-03-29T02:08:53.059Z,4.09
2023-03-29T02:12:01.295Z,4.10
2023-03-29T02:15:13.262Z,4.12
2023-03-29T02:18:19.811Z,4.15
2023-03-29T02:21:42.557Z,4.17
2023-03-29T02:24:50.071Z,4.18
2023-03-29T02:27:54.772Z,4.14
2023-03-29T02:31:30.681Z,4.13
2023-03-29T02:34:41.748Z,4.12
2023-03-29T02:37:49.589Z,4.16
2023-03-29T02:40:56.993Z,4.21
2023-03-29T02:44:04.304Z,4.21
2023-03-29T02:47:25.072Z,4.19
2023-03-29T02:50:37.477Z,4.19
2023-03-29T02:54:13.478Z,4.16
2023-03-29T02:57:18.273Z,4.22
2023-03-29T03:00:24.057Z,4.22
2023-03-29T03:03:29.141Z,4.22
2023-03-29T03:06:33.869Z,4.25
2023-03-29T03:09:37.789Z,4.21
2023-03-29T03:12:42.170Z,4.18
2023-03-29T03:15:49.163Z,4.16
2023-03-29T03:18:55.521Z,4.13
2023-03-29T03:21:59.915Z,4.16
2023-03-29T03:25:04.885Z,4.19
2023-03-29T03:28:09.276Z,4.20
2023-03-29T03:31:15.899Z,4.13
2023-03-29T03:34:19.954Z,4.13
2023-03-29T03:37:24.840Z,4.11
2023-03-29T03:40:29.242Z,4.14
2023-03-29T03:43:34.476Z,4.15
2023-03-29T03:46:38.733Z,4.16
2023-03-29T03:49:43.513Z,4.13
2023-03-29T03:52:47.637Z,4.13
2023-03-29T03:55:55.829Z,4.14
2023-03-29T03:59:00.154Z,4.16
2023-03-29T04:02:05.644Z,4.17
2023-03-29T04:05:10.133Z,4.24
2023-03-29T04:08:15.099Z,4.24
2023-03-29T04:11:19.516Z,4.29
2023-03-29T04:14:25.996Z,4.33
2023-03-29T04:17:30.490Z,4.30
2023-03-29T04:20:35.211Z,4.37
2023-03-29T04:23:39.661Z,4.39
2023-03-29T04:26:44.386Z,4.36
2023-03-29T04:29:48.912Z,4.36
2023-03-29T04:32:53.231Z,4.35
2023-03-29T04:35:57.504Z,4.31
2023-03-29T04:39:02.023Z,4.31
2023-03-29T04:42:06.663Z,4.29
2023-03-29T04:45:13.997Z,4.33
2023-03-29T04:48:18.374Z,4.32
2023-03-29T04:51:24.328Z,4.31
2023-03-29T04:54:28.584Z,4.32
2023-03-29T04:57:33.433Z,4.33
2023-03-29T05:00:37.879Z,4.33
2023-03-29T05:03:42.241Z,4.36
2023-03-29T05:06:47.202Z,4.33
2023-03-29T05:09:51.991Z,4.33
2023-03-29T05:12:56.928Z,4.37
2023-03-29T05:16:02.522Z,4.37
2023-03-29T05:19:09.149Z,4.40
2023-03-29T05:22:14.272Z,4.38
2023-03-29T05:25:19.600Z,4.39
2023-03-29T05:28:23.787Z,4.40
2023-03-29T05:31:29.153Z,4.40
2023-03-29T05:34:33.598Z,4.38
2023-03-29T05:37:38.992Z,4.37
2023-03-29T05:40:43.214Z,4.34
2023-03-29T05:43:47.319Z,4.37
2023-03-29T05:46:52.629Z,4.38
2023-03-29T05:49:57.319Z,4.45
2023-03-29T05:53:01.636Z,4.47
2023-03-29T05:56:08.696Z,4.48
2023-03-29T05:59:13.877Z,4.54
2023-03-29T06:02:18.730Z,4.59
2023-03-29T06:05:22.864Z,4.62
2023-03-29T06:08:28.523Z,4.66
2023-03-29T06:11:34.908Z,4.73
2023-03-29T06:14:39.037Z,4.76
2023-03-29T06:17:47.242Z,4.81
2023-03-29T06:20:53.638Z,4.84
2023-03-29T06:23:58.654Z,4.87
2023-03-29T06:27:03.056Z,4.88
2023-03-29T06:30:08.057Z,4.93
2023-03-29T06:33:14.185Z,4.98
2023-03-29T06:36:20.097Z,5.04
2023-03-29T06:39:26.295Z,5.09
2023-03-29T06:42:30.732Z,5.13
2023-03-29T06:45:37.817Z,5.17
2023-03-29T06:48:42.151Z,5.20
2023-03-29T06:51:46.922Z,5.26
2023-03-29T06:54:51.589Z,5.34
2023-03-29T06:57:56.095Z,5.38
2023-03-29T07:01:04.877Z,5.40
2023-03-29T07:04:10.021Z,5.42
2023-03-29T07:07:20.194Z,5.48
2023-03-29T07:10:32.240Z,5.48
2023-03-29T07:13:36.858Z,5.55
2023-03-29T07:16:41.059Z,5.64
2023-03-29T07:19:45.689Z,5.75
2023-03-29T07:22:51.218Z,5.77
2023-03-29T07:25:55.831Z,5.83
2023-03-29T07:29:00.997Z,5.89
2023-03-29T07:32:05.645Z,5.95
2023-03-29T07:35:12.137Z,5.95
2023-03-29T07:38:16.312Z,5.94
2023-03-29T07:41:21.146Z,5.94
2023-03-29T07:44:27.064Z,5.95
2023-03-29T07:47:31.868Z,5.96
2023-03-29T07:50:36.363Z,5.97
2023-03-29T07:53:40.543Z,6.01
2023-03-29T07:56:44.989Z,6.00
2023-03-29T07:59:49.625Z,6.04
2023-03-29T08:02:54.903Z,6.07
2023-03-29T08:06:02.990Z,6.04
2023-03-29T08:09:07.142Z,6.07
2023-03-29T08:12:11.672Z,6.09
2023-03-29T08:15:17.011Z,6.01
2023-03-29T08:18:21.778Z,6.02
2023-03-29T08:21:26.519Z,6.07
2023-03-29T08:24:31.134Z,6.10
2023-03-29T08:27:35.730Z,6.15
2023-03-29T08:30:39.934Z,6.17
2023-03-29T08:33:44.457Z,6.19
2023-03-29T08:36:49.056Z,6.26
2023-03-29T08:39:53.545Z,6.32
2023-03-29T08:43:19.642Z,6.34
2023-03-29T08:47:07.900Z,6.41
2023-03-29T08:50:13.886Z,6.50
2023-03-29T08:53:31.846Z,6.49
2023-03-29T08:56:39.387Z,6.50
2023-03-29T08:59:45.582Z,6.57
2023-03-29T09:02:53.842Z,6.63
2023-03-29T09:06:10.904Z,6.66
2023-03-29T09:09:20.773Z,6.69
2023-03-29T09:12:52.672Z,6.70
2023-03-29T09:16:09.909Z,6.78
2023-03-29T09:19:47.111Z,6.78
2023-03-29T09:23:46.970Z,6.78
2023-03-29T09:27:00.598Z,6.78
2023-03-29T09:30:17.117Z,6.81
2023-03-29T09:33:42.636Z,6.86
2023-03-29T09:37:01.706Z,6.86
2023-03-29T09:40:31.078Z,6.90
2023-03-29T09:43:41.630Z,6.96
2023-03-29T09:46:58.385Z,7.05
2023-03-29T09:50:31.466Z,7.11
2023-03-29T09:53:37.241Z,7.16
2023-03-29T09:56:41.964Z,7.18
2023-03-29T09:59:49.515Z,7.22
2023-03-29T10:02:57.179Z,7.25
2023-03-29T10:06:06.418Z,7.32
2023-03-29T10:09:21.926Z,7.36
2023-03-29T10:12:26.107Z,7.35
2023-03-29T10:15:31.589Z,7.28
2023-03-29T10:18:43.857Z,7.33
2023-03-29T10:21:53.857Z,7.46
2023-03-29T10:24:58.022Z,7.34
2023-03-29T10:28:16.126Z,7.28
2023-03-29T10:31:22.532Z,7.31
2023-03-29T10:34:28.161Z,7.35
2023-03-29T10:37:32.291Z,7.24
2023-03-29T10:40:48.042Z,7.30
2023-03-29T10:43:53.747Z,7.32
2023-03-29T10:47:19.482Z,7.33
2023-03-29T10:50:26.673Z,7.36
2023-03-29T10:53:34.884Z,7.39
2023-03-29T10:56:50.787Z,7.44
2023-03-29T11:00:08.275Z,7.46
2023-03-29T11:03:55.596Z,7.43
2023-03-29T11:07:18.033Z,7.45
2023-03-29T11:10:48.161Z,7.48
2023-03-29T11:14:22.501Z,7.56
2023-03-29T11:17:50.873Z,7.63
2023-03-29T11:21:45.762Z,7.61
2023-03-29T11:25:08.376Z,7.54
2023-03-29T11:28:41.387Z,7.50
2023-03-29T11:32:13.238Z,7.65
2023-03-29T11:35:36.864Z,7.78
2023-03-29T11:39:00.686Z,7.85
2023-03-29T11:42:17.779Z,7.90
2023-03-29T11:45:57.840Z,7.82
2023-03-29T11:49:44.396Z,7.76
2023-03-29T11:52:59.111Z,7.80
2023-03-29T11:56:19.263Z,7.85
2023-03-29T11:59:36.319Z,7.88
2023-03-29T12:03:14.825Z,7.94
2023-03-29T12:06:37.815Z,7.94
2023-03-29T12:09:59.995Z,7.74
2023-03-29T12:13:38.543Z,7.75
2023-03-29T12:17:01.274Z,7.75
2023-03-29T12:20:28.374Z,7.76
2023-03-29T12:23:33.493Z,7.69
2023-03-29T12:26:50.499Z,7.67
2023-03-29T12:30:34.228Z,7.70
2023-03-29T12:34:19.315Z,7.73
2023-03-29T12:38:04.204Z,7.73
2023-03-29T12:41:19.675Z,7.75
2023-03-29T12:44:24.542Z,7.80
2023-03-29T12:47:39.683Z,7.85
2023-03-29T12:51:07.767Z,7.94
2023-03-29T12:54:21.653Z,8.01
2023-03-29T12:57:38.085Z,8.05
2023-03-29T13:00:45.296Z,8.11
2023-03-29T13:03:55.295Z,8.13
2023-03-29T13:07:05.884Z,8.22
2023-03-29T13:10:30.823Z,8.27
2023-03-29T13:13:38.304Z,8.32
2023-03-29T13:16:43.765Z,8.34
2023-03-29T13:20:18.957Z,8.32
2023-03-29T13:24:06.745Z,8.23
2023-03-29T13:27:37.353Z,8.27
2023-03-29T13:31:06.284Z,8.23
2023-03-29T13:34:39.042Z,8.31
2023-03-29T13:38:21.616Z,8.31
2023-03-29T13:41:38.131Z,8.29
2023-03-29T13:44:46.089Z,8.36
2023-03-29T13:48:04.950Z,8.36
2023-03-29T13:51:21.773Z,8.37
2023-03-29T13:54:37.391Z,8.36
2023-03-29T13:57:52.620Z,8.37
2023-03-29T14:01:29.392Z,8.41
2023-03-29T14:04:43.529Z,8.49
2023-03-29T14:07:51.157Z,8.47
2023-03-29T14:10:56.290Z,8.54
2023-03-29T14:14:08.507Z,8.59
2023-03-29T14:17:22.712Z,8.58
2023-03-29T14:20:27.630Z,8.56
2023-03-29T14:23:37.878Z,8.54
2023-03-29T14:26:47.050Z,8.52
2023-03-29T14:29:52.371Z,8.36
2023-03-29T14:32:57.066Z,8.47
2023-03-29T14:36:05.018Z,8.40
2023-03-29T14:39:21.892Z,8.48
2023-03-29T14:42:29.138Z,8.60
2023-03-29T14:45:33.634Z,8.60
2023-03-29T14:48:38.979Z,8.66
2023-03-29T14:51:47.846Z,8.71
2023-03-29T14:54:58.279Z,8.74
2023-03-29T14:58:02.674Z,8.76
2023-03-29T15:01:19.934Z,8.75
2023-03-29T15:04:31.600Z,8.71
2023-03-29T15:07:37.174Z,8.72
2023-03-29T15:10:44.750Z,8.68
2023-03-29T15:13:56.755Z,8.72
2023-03-29T15:17:43.070Z,8.68
2023-03-29T15:20:54.891Z,8.71
2023-03-29T15:24:02.100Z,8.70
2023-03-29T15:27:18.864Z,8.72
2023-03-29T15:30:39.273Z,8.75
2023-03-29T15:33:44.079Z,8.79
2023-03-29T15:36:48.708Z,8.78
2023-03-29T15:39:53.100Z,8.77
2023-03-29T15:42:57.242Z,8.82
2023-03-29T15:46:01.600Z,8.82
2023-03-29T15:49:06.021Z,8.86
2023-03-29T15:52:10.530Z,8.82
2023-03-29T15:55:15.060Z,8.86
2023-03-29T15:58:30.601Z,8.87
2023-03-29T16:01:37.767Z,8.84
2023-03-29T16:04:42.936Z,8.83
2023-03-29T16:07:47.521Z,8.83
2023-03-29T16:10:51.808Z,8.87
2023-03-29T16:13:57.210Z,8.85
2023-03-29T16:17:03.241Z,8.86
2023-03-29T16:20:10.151Z,8.86
2023-03-29T16:23:14.597Z,8.89
2023-03-29T16:26:19.016Z,8.85
2023-03-29T16:29:25.273Z,8.84
2023-03-29T16:32:29.580Z,8.82
2023-03-29T16:35:38.192Z,8.87
2023-03-29T16:38:42.461Z,8.97
2023-03-29T16:41:48.951Z,8.96
2023-03-29T16:44:54.699Z,9.04
2023-03-29T16:47:59.366Z,8.94
2023-03-29T16:51:04.427Z,8.95
2023-03-29T16:54:09.265Z,8.92
2023-03-29T16:57:13.827Z,8.91
2023-03-29T17:00:20.197Z,8.95
2023-03-29T17:03:24.798Z,8.92
2023-03-29T17:06:29.842Z,8.96
2023-03-29T17:09:34.186Z,8.98
2023-03-29T17:12:39.515Z,8.94
2023-03-29T17:15:44.239Z,9.01
2023-03-29T17:18:48.914Z,9.00
2023-03-29T17:21:52.946Z,9.06
2023-03-29T17:24:57.523Z,9.06
2023-03-29T17:28:01.736Z,9.03
2023-03-29T17:31:07.811Z,9.00
2023-03-29T17:34:13.002Z,8.95
2023-03-29T17:37:17.594Z,9.14
2023-03-29T17:40:22.474Z,9.08
2023-03-29T17:43:27.187Z,8.98
2023-03-29T17:46:32.283Z,9.04
2023-03-29T17:49:37.151Z,9.09
2023-03-29T17:52:41.447Z,9.01
2023-03-29T17:55:45.847Z,8.98
2023-03-29T17:58:50.689Z,8.94
2023-03-29T18:01:54.957Z,8.96
2023-03-29T18:05:02.531Z,9.00
2023-03-29T18:08:08.683Z,8.97
2023-03-29T18:11:22.359Z,9.07
2023-03-29T18:14:26.655Z,9.00
2023-03-29T18:17:31.471Z,9.06
2023-03-29T18:20:35.563Z,9.05
2023-03-29T18:23:42.157Z,9.01
2023-03-29T18:26:46.584Z,8.98
2023-03-29T18:29:51.041Z,9.01
2023-03-29T18:32:55.575Z,9.06
2023-03-29T18:36:01.680Z,9.00
2023-03-29T18:39:06.610Z,8.95
2023-03-29T18:42:12.238Z,8.94
2023-03-29T18:45:18.006Z,8.97
2023-03-29T18:48:22.312Z,8.94
2023-03-29T18:51:28.070Z,8.98
2023-03-29T18:54:32.515Z,9.00
2023-03-29T18:57:37.148Z,9.03
2023-03-29T19:00:43.378Z,8.98
2023-03-29T19:03:48.208Z,8.97
2023-03-29T19:06:53.682Z,8.96
2023-03-29T19:09:57.772Z,8.94
2023-03-29T19:13:01.936Z,9.02
2023-03-29T19:16:07.394Z,9.07
2023-03-29T19:19:12.824Z,9.05
2023-03-29T19:22:17.621Z,9.07
2023-03-29T19:25:22.244Z,9.11
2023-03-29T19:28:27.464Z,9.11
2023-03-29T19:31:33.494Z,9.15
2023-03-29T19:34:38.084Z,9.14
2023-03-29T19:37:42.817Z,9.16
2023-03-29T19:40:49.952Z,9.18
2023-03-29T19:43:54.618Z,9.23
2023-03-29T19:47:00.579Z,9.22
2023-03-29T19:50:06.997Z,9.23
2023-03-29T19:53:12.803Z,9.26
2023-03-29T19:56:17.835Z,9.26
2023-03-29T19:59:22.741Z,9.26
2023-03-29T20:02:27.428Z,9.29
2023-03-29T20:05:31.978Z,9.33
2023-03-29T20:08:38.714Z,9.33
2023-03-29T20:11:46.873Z,9.34
2023-03-29T20:14:51.595Z,9.31
2023-03-29T20:17:59.441Z,9.30
2023-03-29T20:21:06.712Z,9.35
2023-03-29T20:24:11.579Z,9.35
2023-03-29T20:27:15.952Z,9.31
2023-03-29T20:30:20.557Z,9.33
2023-03-29T20:33:24.877Z,9.31
2023-03-29T20:36:30.664Z,9.27
2023-03-29T20:39:35.676Z,9.28
2023-03-29T20:42:40.080Z,9.27
2023-03-29T20:45:53.381Z,9.29
2023-03-29T20:48:58.201Z,9.24
2023-03-29T20:52:08.363Z,9.28
2023-03-29T20:55:13.252Z,9.29
2023-03-29T20:58:17.804Z,9.33
2023-03-29T21:01:22.282Z,9.33
2023-03-29T21:04:27.937Z,9.33
2023-03-29T21:07:32.783Z,9.31
2023-03-29T21:10:37.232Z,9.33
2023-03-29T21:13:42.996Z,9.30
2023-03-29T21:16:50.763Z,9.33
2023-03-29T21:19:55.356Z,9.31
2023-03-29T21:23:00.193Z,9.30
2023-03-29T21:26:07.325Z,9.31
2023-03-29T21:29:11.939Z,9.32
2023-03-29T21:32:16.098Z,9.34
2023-03-29T21:35:20.611Z,9.34
2023-03-29T21:38:25.240Z,9.34
2023-03-29T21:41:29.589Z,9.30
2023-03-29T21:44:34.556Z,9.26
2023-03-29T21:47:39.274Z,9.25
2023-03-29T21:50:44.693Z,9.26
2023-03-29T21:53:49.125Z,9.23
2023-03-29T21:56:53.213Z,9.19
2023-03-29T21:59:57.379Z,9.18
2023-03-29T22:03:01.614Z,9.18
2023-03-29T22:06:09.474Z,9.20
2023-03-29T22:09:14.099Z,9.14
2023-03-29T22:12:18.788Z,9.15
2023-03-29T22:15:22.905Z,9.14
2023-03-29T22:18:30.171Z,9.10
2023-03-29T22:21:37.294Z,9.06
2023-03-29T22:24:42.270Z,9.01
2023-03-29T22:27:48.909Z,8.97
2023-03-29T22:30:53.235Z,9.00
2023-03-29T22:33:58.601Z,8.96
2023-03-29T22:37:03.716Z,9.01
2023-03-29T22:40:10.167Z,8.96
2023-03-29T22:43:14.346Z,9.04
2023-03-29T22:46:19.746Z,9.04
2023-03-29T22:49:24.546Z,8.97
2023-03-29T22:52:28.763Z,8.98
2023-03-29T22:55:33.077Z,9.01
2023-03-29T22:58:37.769Z,9.01
2023-03-29T23:01:42.200Z,9.03
2023-03-29T23:04:47.529Z,9.12
2023-03-29T23:07:51.920Z,9.06
2023-03-29T23:10:56.494Z,9.02
2023-03-29T23:14:03.914Z,9.03
2023-03-29T23:17:10.137Z,9.12
2023-03-29T23:20:14.651Z,9.12
2023-03-29T23:23:21.751Z,9.13
2023-03-29T23:26:27.763Z,9.08
2023-03-29T23:29:31.685Z,9.01
2023-03-29T23:32:36.259Z,9.01
2023-03-29T23:35:40.775Z,8.96
2023-03-29T23:38:46.879Z,9.08
2023-03-29T23:41:51.751Z,9.08
2023-03-29T23:44:56.128Z,9.04
2023-03-29T23:48:01.433Z,9.07
2023-03-29T23:51:08.120Z,9.02
2023-03-29T23:54:12.875Z,9.04
2023-03-29T23:57:17.314Z,9.08
